Time;durP1;ratioP1;P1;durP2;ratioP2;P2;SDS_P1;SDS_P2;PMS_P1;PMS_P2;Temp;Humidity;BMP_temperature;BMP_pressure;BME280_temperature;BME280_humidity;BME280_pressure;Samples;Min_cycle;Max_cycle;Signal;HPM_P1;HPM_P2
2021/09/13 00:00:26;;;;;;;12.88;10.27;;;;;;;14.06;73.34;96832.84;4982787;28;20058;-68
2021/09/13 00:02:53;;;;;;;14.25;9.23;;;;;;;13.93;73.96;96831.63;4981774;28;20050;-68
2021/09/13 00:05:22;;;;;;;14.25;9.30;;;;;;;13.38;74.16;96748.50;4980146;28;20062;-69
2021/09/13 00:07:48;;;;;;;14.63;9.02;;;;;;;13.98;73.91;96831.22;4980491;28;20047;-68
2021/09/13 00:10:16;;;;;;;15.43;9.85;;;;;;;13.95;74.13;96843.97;4981721;28;20054;-68
2021/09/13 00:12:43;;;;;;;13.05;9.48;;;;;;;13.98;73.95;96825.66;4981670;28;20444;-67
2021/09/13 00:15:10;;;;;;;14.15;9.20;;;;;;;13.74;73.97;96793.06;4981727;28;20046;-67
2021/09/13 00:17:37;;;;;;;17.75;9.68;;;;;;;14.02;73.56;96832.03;4980386;28;20061;-67
2021/09/13 00:20:06;;;;;;;14.23;9.75;;;;;;;13.47;74.58;96779.50;4980688;28;20066;-67
2021/09/13 00:22:33;;;;;;;12.73;9.77;;;;;;;13.90;74.38;96836.00;4981594;28;20513;-67
2021/09/13 00:25:00;;;;;;;13.30;9.18;;;;;;;13.54;74.28;96773.16;4980522;28;20164;-68
2021/09/13 00:27:26;;;;;;;16.63;9.60;;;;;;;13.38;73.77;96754.06;4981051;28;20414;-68
2021/09/13 00:29:53;;;;;;;15.50;9.90;;;;;;;13.70;73.75;96796.59;3431721;28;10001604;-67
2021/09/13 00:32:20;;;;;;;13.90;10.60;;;;;;;13.80;73.60;96800.59;4981595;28;20062;-67
2021/09/13 00:34:46;;;;;;;19.13;10.50;;;;;;;13.89;74.05;96822.50;4979967;28;20050;-69
2021/09/13 00:37:13;;;;;;;14.95;10.52;;;;;;;13.51;74.38;96763.59;4981296;28;20129;-68
2021/09/13 00:39:40;;;;;;;14.10;9.95;;;;;;;13.87;74.55;96802.59;4981847;28;20065;-68
2021/09/13 00:42:07;;;;;;;14.00;10.50;;;;;;;13.73;74.57;96816.50;4979977;28;20081;-69
2021/09/13 00:44:34;;;;;;;14.88;10.70;;;;;;;13.65;75.43;96833.22;4981353;28;20487;-68
2021/09/13 00:47:01;;;;;;;17.10;9.95;;;;;;;13.10;75.44;96717.06;4981081;28;20054;-67
2021/09/13 00:49:28;;;;;;;15.10;10.25;;;;;;;13.76;75.46;96818.50;4979509;28;20141;-67
2021/09/13 00:51:54;;;;;;;22.17;10.95;;;;;;;13.79;74.92;96826.06;4980897;28;20070;-68
2021/09/13 00:54:21;;;;;;;15.70;10.73;;;;;;;13.53;75.06;96789.03;4979761;28;20486;-68
2021/09/13 00:56:49;;;;;;;15.52;10.23;;;;;;;13.84;75.02;96808.97;4981091;28;20558;-68
2021/09/13 00:59:15;;;;;;;19.50;10.77;;;;;;;13.62;75.15;96792.22;4981709;28;20153;-67
2021/09/13 01:01:42;;;;;;;18.45;10.77;;;;;;;13.89;74.84;96822.50;4981294;28;20058;-68
2021/09/13 01:04:09;;;;;;;14.85;10.27;;;;;;;13.79;75.08;96818.50;4979789;28;20494;-68
2021/09/13 01:06:36;;;;;;;16.33;10.57;;;;;;;13.24;74.64;96726.22;4979344;28;20513;-69
2021/09/13 01:09:04;;;;;;;14.57;9.65;;;;;;;13.69;74.24;96786.69;4978907;28;20050;-67
2021/09/13 01:11:30;;;;;;;15.88;9.50;;;;;;;13.01;75.06;96689.63;4979391;28;20050;-67
2021/09/13 01:13:57;;;;;;;15.85;10.10;;;;;;;13.83;74.60;96815.72;4980825;28;20065;-67
2021/09/13 01:16:24;;;;;;;15.05;10.52;;;;;;;13.74;75.36;96815.34;4980826;28;20062;-68
2021/09/13 01:18:51;;;;;;;17.17;10.35;;;;;;;13.80;75.55;96824.88;4980867;28;20146;-69
2021/09/13 01:21:18;;;;;;;17.63;10.25;;;;;;;13.76;75.89;96835.19;4981030;28;20149;-67
2021/09/13 01:23:44;;;;;;;18.92;10.27;;;;;;;13.82;75.72;96834.41;4980178;28;20054;-68
2021/09/13 01:26:11;;;;;;;18.77;10.90;;;;;;;13.54;76.04;96801.78;4980239;28;20054;-68
2021/09/13 01:28:38;;;;;;;17.42;10.80;;;;;;;13.78;76.20;96827.25;4980652;28;20070;-68
2021/09/13 01:31:05;;;;;;;18.58;10.60;;;;;;;13.39;76.33;96766.78;4980394;28;20062;-68
2021/09/13 01:33:32;;;;;;;15.45;10.27;;;;;;;13.83;75.77;96835.22;4982377;28;20505;-69
2021/09/13 01:35:58;;;;;;;15.02;10.27;;;;;;;13.91;75.37;96836.81;4982814;28;20058;-68
2021/09/13 01:38:27;;;;;;;21.40;11.45;;;;;;;13.84;75.82;96831.22;4982867;28;20069;-68
2021/09/13 01:40:54;;;;;;;17.45;10.80;;;;;;;13.84;75.71;96836.78;4982596;28;20062;-68
2021/09/13 01:43:21;;;;;;;20.10;11.07;;;;;;;13.79;75.86;96840.78;4982449;28;20072;-68
2021/09/13 01:45:48;;;;;;;18.98;10.85;;;;;;;13.64;75.67;96831.59;4982404;28;20440;-68
2021/09/13 01:48:15;;;;;;;19.92;10.75;;;;;;;13.84;75.95;96837.59;4983611;28;20050;-68
2021/09/13 01:50:41;;;;;;;19.00;10.82;;;;;;;13.78;76.29;96835.59;4983573;28;20069;-67
2021/09/13 01:53:08;;;;;;;17.67;9.95;;;;;;;13.78;76.25;96849.53;4982041;28;20060;-68
2021/09/13 01:55:35;;;;;;;17.35;11.48;;;;;;;13.79;76.75;96828.84;4984316;28;20425;-68
2021/09/13 01:58:02;;;;;;;15.32;9.93;;;;;;;13.81;76.30;96834.81;4981885;28;20051;-67
2021/09/13 02:00:29;;;;;;;19.35;11.20;;;;;;;13.79;76.38;96851.09;4982145;28;20524;-67
2021/09/13 02:02:56;;;;;;;18.88;10.98;;;;;;;13.80;76.37;96852.72;4981857;28;20138;-68
2021/09/13 02:05:23;;;;;;;14.73;10.23;;;;;;;13.30;76.79;96785.84;4983947;28;20085;-67
2021/09/13 02:07:49;;;;;;;16.00;10.82;;;;;;;13.21;76.67;96771.53;4983202;28;20066;-68
2021/09/13 02:10:17;;;;;;;18.83;10.63;;;;;;;13.64;76.88;96823.25;4982324;28;20067;-68
2021/09/13 02:12:44;;;;;;;16.65;9.50;;;;;;;13.63;77.40;96838.38;4983433;28;20129;-68
2021/09/13 02:15:11;;;;;;;17.40;10.70;;;;;;;13.52;78.47;96854.25;4983829;28;20061;-67
2021/09/13 02:17:37;;;;;;;16.48;11.75;;;;;;;13.54;78.17;96837.97;4983770;28;20058;-68
2021/09/13 02:20:05;;;;;;;15.95;11.05;;;;;;;13.12;77.78;96768.28;4983143;28;20069;-68
2021/09/13 02:22:31;;;;;;;17.05;11.30;;;;;;;13.50;78.36;96845.50;4981595;28;20059;-68
2021/09/13 02:24:58;;;;;;;15.82;11.48;;;;;;;13.39;78.46;96833.53;4983188;28;20046;-68
2021/09/13 02:27:25;;;;;;;18.55;11.70;;;;;;;13.41;79.05;96831.16;4981623;28;20062;-68
2021/09/13 02:29:51;;;;;;;16.88;10.20;;;;;;;13.44;79.15;96846.28;4983319;28;20516;-68
2021/09/13 02:32:18;;;;;;;15.20;10.82;;;;;;;12.90;78.93;96761.06;4982928;28;20444;-67
2021/09/13 02:34:45;;;;;;;16.38;11.45;;;;;;;13.30;79.16;96819.22;4983142;28;20494;-68
2021/09/13 02:37:11;;;;;;;15.10;11.88;;;;;;;13.15;79.22;96789.75;4983584;28;20058;-68
2021/09/13 02:39:38;;;;;;;15.73;11.30;;;;;;;13.10;79.08;96781.78;4983161;28;20081;-67
2021/09/13 02:42:05;;;;;;;17.98;11.60;;;;;;;13.41;79.75;96842.31;4980834;28;20050;-67
2021/09/13 02:44:32;;;;;;;18.27;11.38;;;;;;;13.29;79.75;96825.94;4982906;28;20057;-68
2021/09/13 02:46:58;;;;;;;16.27;11.32;;;;;;;13.12;80.31;96812.78;4981252;28;20054;-68
2021/09/13 02:49:28;;;;;;;18.52;11.82;;;;;;;13.11;80.27;96813.19;4982877;28;20137;-68
2021/09/13 02:51:54;;;;;;;22.83;12.63;;;;;;;13.46;79.11;96838.31;4981220;28;20070;-67
2021/09/13 02:54:21;;;;;;;18.73;12.07;;;;;;;13.12;79.25;96806.47;4982639;28;20054;-68
2021/09/13 02:56:48;;;;;;;14.50;11.07;;;;;;;13.34;79.81;96847.81;4983117;28;20069;-68
2021/09/13 02:59:14;;;;;;;16.08;11.07;;;;;;;13.10;79.72;96804.03;4982770;28;20468;-68
2021/09/13 03:01:41;;;;;;;21.08;11.27;;;;;;;13.26;80.87;96842.66;4982518;28;20052;-68
2021/09/13 03:04:08;;;;;;;15.55;11.70;;;;;;;13.23;81.38;96847.00;4982534;28;20082;-68
2021/09/13 03:06:35;;;;;;;18.00;11.75;;;;;;;13.36;80.46;96845.47;4982177;28;20063;-67
2021/09/13 03:09:02;;;;;;;17.55;11.48;;;;;;;13.39;80.11;96900.31;4982515;28;20051;-68
2021/09/13 03:11:28;;;;;;;18.30;12.15;;;;;;;13.33;80.72;96837.09;4982345;28;20076;-68
2021/09/13 03:13:55;;;;;;;23.90;12.18;;;;;;;13.08;79.94;96798.09;4981553;28;20080;-67
2021/09/13 03:16:22;;;;;;;15.73;12.70;;;;;;;13.37;80.31;96841.47;4982726;28;20046;-68
2021/09/13 03:18:49;;;;;;;23.60;11.82;;;;;;;13.18;80.22;96822.34;4982420;28;20077;-69
2021/09/13 03:21:16;;;;;;;22.75;11.85;;;;;;;12.77;80.46;96773.69;4981006;28;20057;-67
2021/09/13 03:23:43;;;;;;;22.52;12.82;;;;;;;13.25;81.03;96850.19;4981827;28;20417;-68
2021/09/13 03:26:09;;;;;;;17.92;13.02;;;;;;;13.17;81.60;96848.56;4980599;28;20054;-68
2021/09/13 03:28:36;;;;;;;21.65;14.48;;;;;;;13.06;81.51;96827.47;4981885;28;20057;-67
2021/09/13 03:31:03;;;;;;;21.17;12.63;;;;;;;13.16;81.82;96858.13;4980707;28;20060;-67
2021/09/13 03:33:32;;;;;;;19.65;12.85;;;;;;;12.85;82.04;96825.34;4982377;28;20058;-67
2021/09/13 03:35:59;;;;;;;20.10;12.68;;;;;;;12.51;82.21;96759.28;4982309;28;20081;-68
2021/09/13 03:38:26;;;;;;;18.48;12.27;;;;;;;12.95;82.61;96852.41;4980783;28;20057;-68
2021/09/13 03:40:53;;;;;;;15.75;12.10;;;;;;;13.03;83.31;96873.53;4981753;28;20140;-68
2021/09/13 03:43:19;;;;;;;18.95;13.38;;;;;;;13.06;83.20;96858.06;4982119;28;20058;-68
2021/09/13 03:45:46;;;;;;;21.08;14.63;;;;;;;13.12;82.67;96862.06;4981643;28;20054;-68
2021/09/13 03:48:13;;;;;;;22.88;15.13;;;;;;;13.16;82.36;96863.69;4981950;28;20054;-67
2021/09/13 03:50:39;;;;;;;21.50;13.32;;;;;;;12.96;83.00;96856.78;4981796;28;20054;-67
2021/09/13 03:53:06;;;;;;;22.58;13.45;;;;;;;13.02;82.55;96849.72;4981157;28;20057;-68
2021/09/13 03:55:35;;;;;;;20.90;14.45;;;;;;;13.14;82.63;96873.59;4982071;28;20054;-68
2021/09/13 03:58:04;;;;;;;22.50;13.82;;;;;;;13.25;81.88;96871.63;4980178;28;20058;-67
2021/09/13 04:00:31;;;;;;;19.58;13.30;;;;;;;12.91;81.69;96809.91;4982201;28;20054;-68
2021/09/13 04:02:58;;;;;;;24.67;14.10;;;;;;;13.25;81.95;96872.44;4981489;28;20058;-68
2021/09/13 04:05:26;;;;;;;21.67;13.50;;;;;;;13.21;82.22;96876.41;4981762;28;20144;-68
2021/09/13 04:10:32;;;;;;;19.15;13.13;;;;;;;12.88;82.65;96835.69;4981945;28;20050;-68
2021/09/13 04:12:59;;;;;;;18.42;12.55;;;;;;;12.81;83.15;96815.41;4981806;28;20051;-68
2021/09/13 04:15:25;;;;;;;19.30;12.48;;;;;;;13.12;83.10;96862.84;4980262;28;20054;-68
2021/09/13 04:17:52;;;;;;;23.70;13.43;;;;;;;13.29;82.52;96878.81;4981392;28;20050;-68
2021/09/13 04:20:19;;;;;;;23.60;13.15;;;;;;;12.94;81.96;96827.78;4981460;28;20496;-68
2021/09/13 04:22:46;;;;;;;23.13;12.95;;;;;;;13.38;81.55;96859.78;4980334;28;20087;-69
2021/09/13 04:25:12;;;;;;;18.77;12.57;;;;;;;13.15;81.44;96827.91;4981696;28;20504;-70
2021/09/13 04:27:39;;;;;;;18.27;13.18;;;;;;;13.64;80.46;96906.75;4981581;28;20128;-68
2021/09/13 04:30:07;;;;;;;18.48;13.40;;;;;;;13.67;80.69;96878.13;4980680;28;20046;-68
2021/09/13 04:32:33;;;;;;;25.23;12.60;;;;;;;13.67;80.83;96888.47;4981775;28;20525;-69
2021/09/13 04:35:00;;;;;;;17.88;12.88;;;;;;;13.68;80.51;96879.75;4980020;28;20050;-68
2021/09/13 04:37:27;;;;;;;18.63;12.52;;;;;;;13.66;79.99;96876.53;4980094;28;20054;-68
2021/09/13 04:39:53;;;;;;;20.58;13.27;;;;;;;13.76;80.30;96883.31;4981197;28;20054;-68
2021/09/13 04:42:20;;;;;;;18.45;12.90;;;;;;;13.80;80.52;96886.13;4980967;28;20072;-68
2021/09/13 04:44:47;;;;;;;20.10;13.20;;;;;;;13.87;80.44;96891.69;4981327;28;20047;-68
2021/09/13 04:47:13;;;;;;;35.50;14.85;;;;;;;13.91;80.85;96892.50;4981020;28;20062;-70
2021/09/13 04:49:40;;;;;;;27.23;14.68;;;;;;;14.10;79.64;96890.13;4981405;28;20076;-68
2021/09/13 04:52:07;;;;;;;25.02;15.35;;;;;;;14.11;79.21;96868.66;4981240;28;20046;-69
2021/09/13 04:54:34;;;;;;;28.15;15.30;;;;;;;14.42;78.22;96884.59;4981425;28;20490;-69
2021/09/13 04:57:00;;;;;;;25.40;14.57;;;;;;;14.65;77.29;96894.13;4979774;28;20100;-68
2021/09/13 04:59:27;;;;;;;28.00;14.65;;;;;;;14.83;76.46;96894.09;4979863;28;20089;-69
2021/09/13 05:01:54;;;;;;;21.48;14.43;;;;;;;14.96;75.26;96890.50;4979361;28;20054;-70
2021/09/13 05:04:21;;;;;;;31.38;14.32;;;;;;;15.02;74.52;96868.53;4981078;28;20065;-69
2021/09/13 05:06:48;;;;;;;24.40;15.20;;;;;;;15.09;73.72;96851.78;4984399;28;20054;-69
2021/09/13 05:09:14;;;;;;;25.27;14.05;;;;;;;15.45;73.30;96903.50;4983201;28;20054;-69
2021/09/13 05:11:42;;;;;;;23.33;12.48;;;;;;;15.06;72.61;96810.75;4982980;28;20062;-68
2021/09/13 05:14:09;;;;;;;17.35;12.20;;;;;;;15.74;71.93;96893.81;4983700;28;20458;-71
2021/09/13 05:16:39;;;;;;;17.52;12.05;;;;;;;15.79;72.21;96898.94;4982558;28;20513;-69
2021/09/13 05:19:06;;;;;;;26.15;12.50;;;;;;;15.74;71.78;96860.28;4983788;28;20082;-71
2021/09/13 05:21:36;;;;;;;20.73;12.88;;;;;;;16.05;71.23;96898.38;4983556;28;20429;-70
2021/09/13 05:24:03;;;;;;;21.02;13.32;;;;;;;15.98;70.29;96852.94;4982279;28;20104;-70
2021/09/13 05:26:30;;;;;;;19.25;14.23;;;;;;;16.34;69.59;96913.72;4982802;28;20054;-70
2021/09/13 05:28:56;;;;;;;22.50;13.30;;;;;;;16.41;69.71;96894.13;4984568;28;20891;-70
2021/09/13 05:31:23;;;;;;;22.15;14.15;;;;;;;16.25;69.65;96845.53;4984558;28;20466;-70
2021/09/13 05:33:50;;;;;;;31.02;15.65;;;;;;;16.76;70.37;96942.59;4984027;28;20054;-70
2021/09/13 05:36:18;;;;;;;21.00;14.90;;;;;;;16.80;71.12;96898.59;4983704;28;20050;-70
2021/09/13 05:38:44;;;;;;;22.88;13.85;;;;;;;16.69;70.75;96859.56;4983683;28;20050;-69
2021/09/13 05:41:12;;;;;;;20.63;14.48;;;;;;;15.78;70.40;96704.63;4982387;28;20072;-71
2021/09/13 05:43:39;;;;;;;28.13;14.10;;;;;;;17.28;69.26;96910.47;4982523;28;20134;-71
2021/09/13 05:46:06;;;;;;;19.30;14.40;;;;;;;17.43;68.25;96893.13;4983592;28;20050;-70
2021/09/13 05:48:32;;;;;;;21.77;13.57;;;;;;;17.36;68.47;96876.38;4982415;28;20085;-70
2021/09/13 05:50:59;;;;;;;20.85;14.30;;;;;;;17.63;67.65;96896.06;4983362;28;20719;-70
2021/09/13 05:53:26;;;;;;;16.90;13.27;;;;;;;17.37;67.63;96849.19;4982178;28;20062;-70
2021/09/13 05:55:53;;;;;;;21.60;13.75;;;;;;;17.76;66.98;96895.13;4983371;28;20052;-70
2021/09/13 05:58:19;;;;;;;19.25;13.00;;;;;;;17.42;66.31;96801.13;4983391;28;20095;-70
2021/09/13 06:00:46;;;;;;;17.23;12.32;;;;;;;18.33;65.27;96891.47;4983420;28;20054;-70
2021/09/13 06:03:13;;;;;;;17.92;13.20;;;;;;;18.52;63.67;96894.41;4983307;28;20130;-69
2021/09/13 06:05:40;;;;;;;19.35;13.45;;;;;;;18.45;62.14;96835.59;4981893;28;20085;-69
2021/09/13 06:08:07;;;;;;;18.90;12.48;;;;;;;18.77;61.62;96869.50;4983839;28;20488;-68
2021/09/13 06:10:33;;;;;;;21.60;13.30;;;;;;;19.08;61.13;96884.97;4981457;28;20145;-69
2021/09/13 06:13:00;;;;;;;21.40;12.85;;;;;;;19.26;60.00;96891.06;4983100;28;20065;-70
2021/09/13 06:15:27;;;;;;;21.80;13.88;;;;;;;19.43;60.14;96887.13;4982879;28;20077;-70
2021/09/13 06:17:53;;;;;;;19.90;12.75;;;;;;;19.66;60.06;96891.88;4982852;28;20068;-69
2021/09/13 06:20:22;;;;;;;25.13;13.73;;;;;;;19.64;59.82;96854.19;4981695;28;20062;-69
2021/09/13 06:22:49;;;;;;;26.27;14.77;;;;;;;18.93;59.94;96732.06;4983247;28;20058;-68
2021/09/13 06:25:16;;;;;;;29.83;13.05;;;;;;;20.18;59.59;96889.94;4981844;28;20587;-69
2021/09/13 06:27:42;;;;;;;23.73;13.25;;;;;;;20.40;59.13;96884.59;4983174;28;20058;-71
2021/09/13 06:30:10;;;;;;;22.42;13.57;;;;;;;20.27;59.04;96847.13;4981633;28;20061;-71
2021/09/13 06:32:36;;;;;;;20.38;13.10;;;;;;;20.58;58.95;96870.91;4982768;28;20054;-71
2021/09/13 06:35:03;;;;;;;29.77;14.05;;;;;;;20.98;58.49;96886.38;4983038;28;20054;-69
2021/09/13 06:37:31;;;;;;;25.45;17.05;;;;;;;20.53;57.91;96778.56;4983000;28;20074;-69
2021/09/13 06:39:58;;;;;;;20.27;14.52;;;;;;;21.36;58.00;96895.81;4982767;28;20051;-69
2021/09/13 06:42:26;;;;;;;23.42;15.18;;;;;;;21.56;57.42;96892.84;4983162;28;20090;-69
2021/09/13 06:44:55;;;;;;;23.92;14.10;;;;;;;21.66;56.73;96892.53;4981621;28;20051;-69
